KSTSKTVL

Guest
Details From KSTS - Charles M. Schulz - Sonoma Co
To KTVL - South Lake Tahoe
Flight Number -
Tags generated
Created
Modified
Stats Distance 134 nm / 248 km
Max Altitude 15,500 ft / 4,724 m
Waypoints 3
Social Downloads 1
Likes 0
Share VATSIM

Download

Looking for another format? Having issues loading an existing format? Contact us
Advertisement - Login to hide

Notes

Basic altitude profile: - Ascent Rate: 2500ft/min - Ascent Speed: 250kts - Cruise Altitude: 35000ft - Cruise Speed: 420kts - Descent Rate: 1500ft/min - Descent Speed: 250kts Options: - Use NATs: yes - Use PACOTS: yes - Use low airways: yes - Use high airways: yes

Route

KSTS CAPTO KTVL

ID Type Via Altitude Latitude Longitude Leg Dist Tot Dist Heading (true) Name
O KSTS APT - 0 ft / 0 m 38.50898˚ -122.81292˚ - 0 nm - Charles M. Schulz - Sonoma Co
CAPTO FIX - 15,500 ft / 4,724 m 38.67221˚ -121.62432˚ 56 nm 56 nm 80° / 80° -
O KTVL APT - 0 ft / 0 m 38.89388˚ -119.99533˚ 77 nm 134 nm 80° / 81° South Lake Tahoe

Altitude Profile

Advertisement - Login to hide

KSTS

Details ICAO KSTS (STS)
Name Charles M. Schulz - Sonoma Co
Region United States
Timezone America/Los_Angeles (UTC-8.0)
Stats Elevation 128 ft / 39 m (AMSL)
Location 38.508979° -122.812922°
Runways 2
Magnetic Variation 13.724° E

METAR

KSTS 131253Z AUTO 00000KT 3SM BR CLR M01/M01 A3017 RMK AO2 SLP212 T10061011

Decode

TAF

KSTS 131127Z 1312/1412 00000KT 3SM BR SKC TEMPO 1312/1314 1/2SM FG VV002 FM131500 00000KT P6SM FEW250 FM132300 VRB03KT P6SM SKC FM140500 00000KT 2SM BR SKC FM140700 00000KT 1/2SM FG VV002

Decode

Departure Runways

ID Width Length Bearing (true) Bearing (mag) Surface Threshold Offset Overrun Length
01 98 ft / 30 m 5,008 ft / 1,527 m 29.05° 15.33° Asphalt 0 ft / 0 m 0 ft / 0 m
14 151 ft / 46 m 5,122 ft / 1,561 m 157.28° 143.56° Asphalt 0 ft / 0 m 200 ft / 61 m
19 98 ft / 30 m 5,008 ft / 1,527 m 209.05° 195.33° Asphalt 0 ft / 0 m 0 ft / 0 m
32 151 ft / 46 m 5,122 ft / 1,561 m 337.28° 323.56° Asphalt 0 ft / 0 m 200 ft / 61 m

KTVL

Details ICAO KTVL (TVL)
Name South Lake Tahoe
Region United States
Timezone America/Los_Angeles (UTC-8.0)
Stats Elevation 6,264 ft / 1,909 m (AMSL)
Location 38.893882° -119.995335°
Runways 1
Magnetic Variation 13.321° E

METAR

KTVL 131335Z AUTO 00000KT 10SM BKN002 M08/M09 A3037 RMK AO2 T10781094

Decode

TAF

TAF KTVL 131120Z 1312/1412 VRB03KT P6SM SKC

Decode

Destination Runways

ID Width Length Bearing (true) Bearing (mag) Surface Threshold Offset Overrun Length
18 150 ft / 46 m 8,556 ft / 2,608 m 192.88° 179.56° Asphalt 0 ft / 0 m 0 ft / 0 m
36 150 ft / 46 m 8,556 ft / 2,608 m 12.88° 359.56° Asphalt 2,037 ft / 621 m 0 ft / 0 m

Approach Navaids

Runway Type Ident Frequency Range Bearing (true) Bearing (mag) Slope Elevation
18 Localiser ITVL 108.90 MHz 18 nm / 33 km 186.00° 172.68° - 6,264 ft / 1,909 m (AMSL)
18 DME ITVL 108.90 MHz 18 nm / 33 km - - - 6,264 ft / 1,909 m (AMSL)

Popular Alternatives